TimeCST,TemperatureF,Dew PointF,Humidity,Sea Level PressureIn,VisibilityMPH,Wind Direction,Wind SpeedMPH,Gust SpeedMPH,PrecipitationIn,Events,Conditions,WindDirDegrees,DateUTC
12:56 AM,19.9,15.1,81,30.03,-9999.0,SW,10.4,-,N/A,,Unknown,230,2013-02-12 06:56:00
1:56 AM,23.0,15.1,72,29.96,-9999.0,West,20.7,31.1,0.02,,Unknown,260,2013-02-12 07:56:00
2:07 AM,21.2,15.8,80,29.88,-9999.0,WSW,16.1,24.2,N/A,,Unknown,250,2013-02-12 08:07:00
2:56 AM,21.0,14.0,74,29.96,-9999.0,SSW,12.7,-,N/A,,Unknown,210,2013-02-12 08:56:00
3:56 AM,21.9,15.1,75,29.92,-9999.0,West,18.4,21.9,N/A,,Unknown,260,2013-02-12 09:56:00
4:56 AM,24.1,16.0,71,29.91,-9999.0,West,16.1,-,N/A,,Unknown,260,2013-02-12 10:56:00
5:56 AM,25.0,16.0,69,29.90,-9999.0,West,15.0,-,N/A,,Unknown,260,2013-02-12 11:56:00
6:56 AM,25.0,15.1,66,29.90,-9999.0,West,18.4,-,N/A,,Unknown,270,2013-02-12 12:56:00
7:56 AM,24.1,14.0,65,29.91,-9999.0,West,16.1,-,N/A,,Unknown,280,2013-02-12 13:56:00
8:56 AM,25.0,15.1,66,29.91,-9999.0,West,12.7,-,N/A,,Unknown,280,2013-02-12 14:56:00
9:56 AM,24.1,16.0,71,29.92,-9999.0,WNW,6.9,-,N/A,,Unknown,300,2013-02-12 15:56:00
10:56 AM,25.0,17.1,72,29.93,-9999.0,NW,8.1,-,N/A,,Unknown,320,2013-02-12 16:56:00
11:56 AM,27.0,18.0,69,29.93,-9999.0,West,8.1,-,N/A,,Unknown,270,2013-02-12 17:56:00
12:56 PM,28.0,19.0,69,29.91,-9999.0,NW,11.5,-,N/A,,Unknown,310,2013-02-12 18:56:00
1:56 PM,28.0,19.9,72,29.90,-9999.0,WNW,10.4,-,N/A,,Unknown,300,2013-02-12 19:56:00
2:56 PM,28.9,21.0,72,29.89,-9999.0,NNW,8.1,-,N/A,,Unknown,330,2013-02-12 20:56:00
3:56 PM,30.0,21.0,69,29.89,-9999.0,NW,3.5,-,N/A,,Unknown,320,2013-02-12 21:56:00
4:56 PM,27.0,19.9,75,29.89,-9999.0,Calm,Calm,-,N/A,,Unknown,0,2013-02-12 22:56:00
5:56 PM,25.0,19.0,78,29.89,-9999.0,West,4.6,-,N/A,,Unknown,270,2013-02-12 23:56:00
6:56 PM,19.0,15.1,85,29.91,-9999.0,NNW,5.8,-,N/A,,Unknown,330,2013-02-13 00:56:00
7:56 PM,26.1,19.9,78,29.90,-9999.0,WNW,11.5,-,N/A,,Unknown,290,2013-02-13 01:56:00
8:56 PM,27.0,21.0,78,29.88,-9999.0,WNW,11.5,-,N/A,,Unknown,290,2013-02-13 02:56:00
9:56 PM,28.0,21.0,75,29.88,-9999.0,NW,13.8,-,N/A,,Unknown,310,2013-02-13 03:56:00
10:56 PM,28.0,21.9,78,29.86,-9999.0,WNW,10.4,-,N/A,,Unknown,290,2013-02-13 04:56:00
11:56 PM,28.0,21.9,78,29.84,-9999.0,WNW,9.2,-,N/A,,Unknown,290,2013-02-13 05:56:00